Naniwa Maru No.65 — JD2750 — position and weather

sailwx.info

Track history (hours):
 
Tides and Currents Weather Stations Pressure Air Temp Water Temp Dewpoint Dewpoint Depression Visibility Wind Speed Wind Dir Waves Ship Positions

Naniwa Maru No.65

Last reported at 2018-Jul-17 17:40 UTC. Time now 2018-Jul-22 14:45 UTC.
Position N 33°44' E 135°05'.

Length 105 m; draft 5.4 m.

Type: Tanker. MMSI: 431000661.

Date/timePositionNaut miles runAvg speedWind from/ knotsBaromVisibWave heightAir tempDewpointWater temp
2018-Jul-17 17:40N 33°44' E 135°05'214.9
2018-Jul-17 17:30N 33°46' E 135°03'714.8
2018-Jul-17 17:00N 33°51' E 134°56'815.0
2018-Jul-17 16:28N 33°59' E 134°57'714.8
2018-Jul-17 16:00N 34°06' E 134°58'714.7
2018-Jul-17 15:30N 34°13' E 134°58'613.0
2018-Jul-17 15:00N 34°20' E 134°59'713.9
2018-Jul-17 14:30N 34°26' E 135°01'713.6
2018-Jul-17 14:00N 34°33' E 135°03'5 9.2
2018-Jul-17 13:29N 34°37' E 135°00'712.9
2018-Jul-17 12:58N 34°34' E 134°53'714.0
2018-Jul-17 12:29N 34°32' E 134°45'715.2
2018-Jul-17 12:01N 34°29' E 134°37'815.6
2018-Jul-17 11:30N 34°26' E 134°28'815.3
2018-Jul-17 11:00N 34°23' E 134°19'2 0.1
2018-Jul-16 09:19N 34°25' E 134°22'414.2
2018-Jul-16 09:00N 34°27' E 134°26'714.3
2018-Jul-16 08:30N 34°29' E 134°34'713.9
2018-Jul-16 08:00N 34°32' E 134°42'713.2
2018-Jul-16 07:30N 34°34' E 134°50'611.4
2018-Jul-16 06:59N 34°37' E 134°56'5 9.4
2018-Jul-16 06:29N 34°37' E 135°02'5 9.8
2018-Jul-16 06:00N 34°33' E 135°05'714.1
2018-Jul-16 05:30N 34°26' E 135°02'713.5
2018-Jul-16 05:00N 34°20' E 134°60'612.8
2018-Jul-16 04:30N 34°13' E 134°59'714.7
2018-Jul-16 04:00N 34°06' E 134°59'714.0
2018-Jul-16 03:30N 33°59' E 134°59'713.6
2018-Jul-16 03:00N 33°52' E 134°59'713.7
2018-Jul-16 02:30N 33°46' E 135°03'  
2018-Jul-08 11:25N 34°51' E 139°48'615.5
2018-Jul-08 11:00N 34°56' E 139°44'714.2
2018-Jul-08 10:30N 35°03' E 139°43'713.9
2018-Jul-08 10:01N 35°10' E 139°46'713.1
2018-Jul-08 09:30N 35°16' E 139°46'713.2
2018-Jul-08 09:00N 35°22' E 139°42'713.4
2018-Jul-08 08:30N 35°27' E 139°48'713.9
2018-Jul-08 08:00N 35°31' E 139°55'612.4
2018-Jul-08 07:30N 35°32' E 140°03'4 0.3
2018-Jul-07 18:26N 35°32' E 139°58'614.8
2018-Jul-07 18:00N 35°29' E 139°52'  
Track history (hours):
 
Tides and Currents Weather Stations Pressure Air Temp Water Temp Dewpoint Dewpoint Depression Visibility Wind Speed Wind Dir Waves Ship Positions

Naniwa Maru No.65

Last reported at 2018-Jul-17 17:40 UTC. Time now 2018-Jul-22 14:45 UTC.
Position N 33°44' E 135°05'.

Length 105 m; draft 5.4 m.

Type: Tanker. MMSI: 431000661.

Date/timePositionNaut miles runAvg speedWind from/ knotsBaromVisibWave heightAir tempDewpointWater temp
2018-Jul-17 17:40N 33°44' E 135°05'214.9
2018-Jul-17 17:30N 33°46' E 135°03'714.8
2018-Jul-17 17:00N 33°51' E 134°56'815.0
2018-Jul-17 16:28N 33°59' E 134°57'714.8
2018-Jul-17 16:00N 34°06' E 134°58'714.7
2018-Jul-17 15:30N 34°13' E 134°58'613.0
2018-Jul-17 15:00N 34°20' E 134°59'713.9
2018-Jul-17 14:30N 34°26' E 135°01'713.6
2018-Jul-17 14:00N 34°33' E 135°03'5 9.2
2018-Jul-17 13:29N 34°37' E 135°00'712.9
2018-Jul-17 12:58N 34°34' E 134°53'714.0
2018-Jul-17 12:29N 34°32' E 134°45'715.2
2018-Jul-17 12:01N 34°29' E 134°37'815.6
2018-Jul-17 11:30N 34°26' E 134°28'815.3
2018-Jul-17 11:00N 34°23' E 134°19'2 0.1
2018-Jul-16 09:19N 34°25' E 134°22'414.2
2018-Jul-16 09:00N 34°27' E 134°26'714.3
2018-Jul-16 08:30N 34°29' E 134°34'713.9
2018-Jul-16 08:00N 34°32' E 134°42'713.2
2018-Jul-16 07:30N 34°34' E 134°50'611.4
2018-Jul-16 06:59N 34°37' E 134°56'5 9.4
2018-Jul-16 06:29N 34°37' E 135°02'5 9.8
2018-Jul-16 06:00N 34°33' E 135°05'714.1
2018-Jul-16 05:30N 34°26' E 135°02'713.5
2018-Jul-16 05:00N 34°20' E 134°60'612.8
2018-Jul-16 04:30N 34°13' E 134°59'714.7
2018-Jul-16 04:00N 34°06' E 134°59'714.0
2018-Jul-16 03:30N 33°59' E 134°59'713.6
2018-Jul-16 03:00N 33°52' E 134°59'713.7
2018-Jul-16 02:30N 33°46' E 135°03'  
2018-Jul-08 11:25N 34°51' E 139°48'615.5
2018-Jul-08 11:00N 34°56' E 139°44'714.2
2018-Jul-08 10:30N 35°03' E 139°43'713.9
2018-Jul-08 10:01N 35°10' E 139°46'713.1
2018-Jul-08 09:30N 35°16' E 139°46'713.2
2018-Jul-08 09:00N 35°22' E 139°42'713.4
2018-Jul-08 08:30N 35°27' E 139°48'713.9
2018-Jul-08 08:00N 35°31' E 139°55'612.4
2018-Jul-08 07:30N 35°32' E 140°03'4 0.3
2018-Jul-07 18:26N 35°32' E 139°58'614.8
2018-Jul-07 18:00N 35°29' E 139°52'  

Dump ship's entire track history